Back to Top

Language: 

My Weather Underground Personal Weather Station Historical Data with Graphs...

Delerius Weather Station Historical Data
Daily Summary for March 13, 2017 Units:  English    Metric   Both
« Previous Day
Next Day »
Daily Weekly Monthly Yearly Custom
  High: Low: Average:
Temperature: 57.3 °F 38.3 °F 48.1 °F
Dew Point: 47.3 °F 36.1 °F 42.5 °F
Humidity: 93 % 66 % 81 %
Wind Speed: 17.0 mph 0.0 mph 6.5 mph
Wind Gust: 20.0 mph - -
Wind:- - West
Pressure: 30.38 in 30.18 in -
Precipitation: 0.00 in    
Historical Graphs
 
 
Tabular Data for March 13, 2017
Time Temperature Dew Point Pressure Wind Wind Speed Wind Gust Humidity Rainfall Rate (Hourly) solar Conditions
00:05 43.9 °F 40.3 °F 30.18 in WNW 5.0 mph 16.0 mph 87 % 0.00 in 0 W/m2
00:15 43.8 °F 40.2 °F 30.18 in West 5.0 mph 6.0 mph 87 % 0.00 in 0 W/m2
00:20 43.7 °F 40.1 °F 30.18 in WNW 5.0 mph 6.0 mph 87 % 0.00 in 0 W/m2
00:25 43.5 °F 39.9 °F 30.18 in WNW 6.0 mph 8.0 mph 87 % 0.00 in 0 W/m2
00:30 43.4 °F 39.8 °F 30.19 in West 7.0 mph 7.0 mph 87 % 0.00 in 0 W/m2
00:40 43.3 °F 40.0 °F 30.19 in West 7.0 mph 7.0 mph 88 % 0.00 in 0 W/m2
00:45 43.2 °F 39.6 °F 30.19 in WNW 5.0 mph 7.0 mph 87 % 0.00 in 0 W/m2
00:55 43.0 °F 39.7 °F 30.20 in WNW 3.0 mph 7.0 mph 88 % 0.00 in 0 W/m2
01:00 42.9 °F 39.6 °F 30.20 in WNW 5.0 mph 9.0 mph 88 % 0.00 in 0 W/m2
01:05 42.9 °F 39.6 °F 30.21 in WNW 6.0 mph 9.0 mph 88 % 0.00 in 0 W/m2
01:10 42.9 °F 39.6 °F 30.21 in West 6.0 mph 6.0 mph 88 % 0.00 in 0 W/m2
01:15 42.9 °F 39.6 °F 30.21 in WNW 5.0 mph 7.0 mph 88 % 0.00 in 0 W/m2
01:20 42.9 °F 39.6 °F 30.21 in WNW 6.0 mph 6.0 mph 88 % 0.00 in 0 W/m2
01:30 42.9 °F 39.3 °F 30.22 in West 7.0 mph 9.0 mph 87 % 0.00 in 0 W/m2
01:35 43.0 °F 39.4 °F 30.21 in West 8.0 mph 9.0 mph 87 % 0.00 in 0 W/m2
01:40 43.0 °F 39.1 °F 30.21 in WNW 8.0 mph 9.0 mph 86 % 0.00 in 0 W/m2
01:45 43.0 °F 39.1 °F 30.22 in WNW 7.0 mph 9.0 mph 86 % 0.00 in 0 W/m2
01:50 43.0 °F 39.1 °F 30.22 in NW 7.0 mph 7.0 mph 86 % 0.00 in 0 W/m2
02:00 42.8 °F 38.6 °F 30.22 in WNW 4.0 mph 9.0 mph 85 % 0.00 in 0 W/m2
02:05 42.7 °F 38.5 °F 30.22 in NW 4.0 mph 9.0 mph 85 % 0.00 in 0 W/m2
02:15 42.5 °F 38.3 °F 30.22 in WNW 5.0 mph 9.0 mph 85 % 0.00 in 0 W/m2
02:20 42.4 °F 38.2 °F 30.22 in WNW 5.0 mph 9.0 mph 85 % 0.00 in 0 W/m2
02:25 42.3 °F 38.1 °F 30.22 in NW 5.0 mph 9.0 mph 85 % 0.00 in 0 W/m2
02:35 42.2 °F 38.0 °F 30.22 in NNW 2.0 mph 9.0 mph 85 % 0.00 in 0 W/m2
02:40 42.1 °F 37.9 °F 30.22 in WNW 1.0 mph 1.0 mph 85 % 0.00 in 0 W/m2
02:45 41.9 °F 37.7 °F 30.22 in Calm   9.0 mph 85 % 0.00 in 0 W/m2
02:50 41.7 °F 37.5 °F 30.23 in Calm   9.0 mph 85 % 0.00 in 0 W/m2
02:55 41.5 °F 37.6 °F 30.23 in WNW 1.0 mph 9.0 mph 86 % 0.00 in 0 W/m2
03:00 41.3 °F 37.4 °F 30.22 in WNW 1.0 mph 9.0 mph 86 % 0.00 in 0 W/m2
03:10 41.6 °F 38.3 °F 30.23 in NW 5.0 mph 9.0 mph 88 % 0.00 in 0 W/m2
03:20 42.1 °F 38.8 °F 30.23 in West 7.0 mph 9.0 mph 88 % 0.00 in 0 W/m2
03:25 42.3 °F 39.0 °F 30.23 in NW 7.0 mph 9.0 mph 88 % 0.00 in 0 W/m2
03:30 42.5 °F 38.9 °F 30.23 in NW 6.0 mph 9.0 mph 87 % 0.00 in 0 W/m2
03:35 42.5 °F 38.9 °F 30.23 in WNW 6.0 mph 9.0 mph 87 % 0.00 in 0 W/m2
03:40 42.5 °F 38.9 °F 30.23 in WNW 5.0 mph 9.0 mph 87 % 0.00 in 0 W/m2
03:45 42.4 °F 38.8 °F 30.24 in West 4.0 mph 9.0 mph 87 % 0.00 in 0 W/m2
03:50 42.3 °F 38.7 °F 30.24 in WNW 2.0 mph 2.0 mph 87 % 0.00 in 0 W/m2
03:55 42.2 °F 38.9 °F 30.24 in WNW 3.0 mph 4.0 mph 88 % 0.00 in 0 W/m2
04:00 42.2 °F 38.9 °F 30.24 in NW 3.0 mph 3.0 mph 88 % 0.00 in 0 W/m2
04:10 42.0 °F 38.7 °F 30.24 in West 2.0 mph 9.0 mph 88 % 0.00 in 0 W/m2
04:20 41.7 °F 38.7 °F 30.24 in WNW 1.0 mph 9.0 mph 89 % 0.00 in 0 W/m2
04:25 41.5 °F 38.5 °F 30.24 in Calm   9.0 mph 89 % 0.00 in 0 W/m2
04:30 41.2 °F 38.2 °F 30.24 in WNW 1.0 mph 9.0 mph 89 % 0.00 in 0 W/m2
04:35 41.0 °F 38.0 °F 30.24 in WNW 2.0 mph 9.0 mph 89 % 0.00 in 0 W/m2
04:40 40.9 °F 38.2 °F 30.24 in WNW 4.0 mph 9.0 mph 90 % 0.00 in 0 W/m2
04:50 41.0 °F 38.3 °F 30.25 in West 5.0 mph 9.0 mph 90 % 0.00 in 0 W/m2
04:55 41.0 °F 38.3 °F 30.25 in West 5.0 mph 9.0 mph 90 % 0.00 in 0 W/m2
05:00 40.9 °F 38.2 °F 30.25 in West 2.0 mph 2.0 mph 90 % 0.00 in 0 W/m2
05:05 40.7 °F 38.0 °F 30.25 in West 1.0 mph 9.0 mph 90 % 0.00 in 0 W/m2
05:10 40.5 °F 37.8 °F 30.25 in West 1.0 mph 1.0 mph 90 % 0.00 in 0 W/m2
05:15 40.3 °F 37.9 °F 30.25 in Calm   9.0 mph 91 % 0.00 in 0 W/m2
05:25 40.0 °F 37.6 °F 30.25 in Calm   9.0 mph 91 % 0.00 in 0 W/m2
05:30 39.9 °F 37.5 °F 30.25 in Calm   9.0 mph 91 % 0.00 in 0 W/m2
05:35 39.7 °F 37.3 °F 30.25 in Calm   9.0 mph 91 % 0.00 in 0 W/m2
05:40 39.5 °F 37.1 °F 30.25 in Calm   9.0 mph 91 % 0.00 in 0 W/m2
05:50 39.4 °F 37.3 °F 30.26 in Calm   9.0 mph 92 % 0.00 in 0 W/m2
06:00 39.1 °F 37.0 °F 30.27 in Calm   9.0 mph 92 % 0.00 in 0 W/m2
06:05 39.0 °F 36.9 °F 30.27 in Calm   9.0 mph 92 % 0.00 in 0 W/m2
06:10 38.9 °F 36.8 °F 30.27 in Calm   9.0 mph 92 % 0.00 in 0 W/m2
06:15 38.7 °F 36.3 °F 30.27 in Calm   9.0 mph 91 % 0.00 in 0 W/m2
06:20 38.5 °F 36.1 °F 30.27 in Calm   9.0 mph 91 % 0.00 in 0 W/m2
06:25 38.4 °F 36.3 °F 30.27 in Calm   9.0 mph 92 % 0.00 in 0 W/m2
06:30 38.4 °F 36.3 °F 30.27 in Calm   9.0 mph 92 % 0.00 in 7 W/m2
06:35 38.3 °F 36.2 °F 30.27 in Calm   9.0 mph 92 % 0.00 in 9 W/m2
06:40 38.3 °F 36.2 °F 30.28 in Calm   9.0 mph 92 % 0.00 in 14 W/m2
06:50 38.3 °F 36.5 °F 30.28 in WSW 1.0 mph 1.0 mph 93 % 0.00 in 18 W/m2
06:55 38.5 °F 36.7 °F 30.28 in West 1.0 mph 2.0 mph 93 % 0.00 in 18 W/m2
07:05 39.2 °F 37.1 °F 30.28 in West 4.0 mph 9.0 mph 92 % 0.00 in 30 W/m2
07:10 39.6 °F 37.5 °F 30.28 in WSW 4.0 mph 9.0 mph 92 % 0.00 in 63 W/m2
07:15 40.1 °F 38.0 °F 30.28 in WSW 3.0 mph 9.0 mph 92 % 0.00 in 46 W/m2
07:20 40.6 °F 38.5 °F 30.28 in WSW 3.0 mph 9.0 mph 92 % 0.00 in 65 W/m2
07:25 41.0 °F 38.6 °F 30.28 in West 3.0 mph 9.0 mph 91 % 0.00 in 65 W/m2
07:30 41.3 °F 38.9 °F 30.28 in West 2.0 mph 9.0 mph 91 % 0.00 in 42 W/m2
07:35 41.6 °F 38.9 °F 30.28 in WNW 4.0 mph 9.0 mph 90 % 0.00 in 44 W/m2
07:40 42.0 °F 39.0 °F 30.28 in West 5.0 mph 9.0 mph 89 % 0.00 in 74 W/m2
07:45 42.4 °F 39.4 °F 30.28 in WSW 6.0 mph 9.0 mph 89 % 0.00 in 102 W/m2
07:50 42.8 °F 39.5 °F 30.28 in WSW 7.0 mph 9.0 mph 88 % 0.00 in 53 W/m2
07:55 43.2 °F 39.6 °F 30.28 in West 8.0 mph 9.0 mph 87 % 0.00 in 109 W/m2
08:05 44.2 °F 40.3 °F 30.29 in WSW 8.0 mph 10.0 mph 86 % 0.00 in 207 W/m2
08:10 44.6 °F 40.1 °F 30.29 in WNW 9.0 mph 9.0 mph 84 % 0.00 in 209 W/m2
08:15 45.1 °F 40.6 °F 30.29 in WSW 8.0 mph 10.0 mph 84 % 0.00 in 239 W/m2
08:20 45.5 °F 40.3 °F 30.29 in WNW 8.0 mph 9.0 mph 82 % 0.00 in 255 W/m2
08:25 45.9 °F 40.4 °F 30.29 in WSW 8.0 mph 10.0 mph 81 % 0.00 in 269 W/m2
08:30 46.4 °F 40.6 °F 30.29 in West 8.0 mph 9.0 mph 80 % 0.00 in 225 W/m2
08:35 46.7 °F 40.5 °F 30.30 in WNW 8.0 mph 9.0 mph 79 % 0.00 in 287 W/m2
08:45 47.4 °F 40.6 °F 30.30 in West 9.0 mph 10.0 mph 77 % 0.00 in 315 W/m2
08:50 47.7 °F 40.5 °F 30.30 in WSW 10.0 mph 10.0 mph 76 % 0.00 in 272 W/m2
08:55 48.0 °F 40.8 °F 30.31 in WSW 10.0 mph 10.0 mph 76 % 0.00 in 339 W/m2
09:00 48.3 °F 41.1 °F 30.31 in WNW 10.0 mph 10.0 mph 76 % 0.00 in 341 W/m2
09:05 48.7 °F 41.5 °F 30.30 in West 9.0 mph 10.0 mph 76 % 0.00 in 373 W/m2
09:10 49.1 °F 41.9 °F 30.31 in West 8.0 mph 10.0 mph 76 % 0.00 in 367 W/m2
09:20 49.8 °F 42.2 °F 30.31 in West 9.0 mph 9.0 mph 75 % 0.00 in 394 W/m2
09:25 49.9 °F 41.6 °F 30.31 in WNW 12.0 mph 12.0 mph 73 % 0.00 in 411 W/m2
09:35 50.0 °F 41.7 °F 30.31 in WNW 13.0 mph 14.0 mph 73 % 0.00 in 392 W/m2
09:40 50.1 °F 42.1 °F 30.31 in West 13.0 mph 13.0 mph 74 % 0.00 in 406 W/m2
09:45 50.4 °F 42.4 °F 30.31 in WNW 10.0 mph 13.0 mph 74 % 0.00 in 455 W/m2
09:55 51.2 °F 43.2 °F 30.31 in West 8.0 mph 9.0 mph 74 % 0.00 in 469 W/m2
10:00 51.6 °F 43.2 °F 30.32 in West 7.0 mph 9.0 mph 73 % 0.00 in 490 W/m2
10:05 52.0 °F 43.6 °F 30.32 in NW 7.0 mph 9.0 mph 73 % 0.00 in 533 W/m2
10:10 52.3 °F 43.9 °F 30.32 in WSW 8.0 mph 8.0 mph 73 % 0.00 in 534 W/m2
10:15 52.7 °F 44.6 °F 30.32 in West 8.0 mph 9.0 mph 74 % 0.00 in 547 W/m2
10:25 53.2 °F 44.8 °F 30.32 in WNW 10.0 mph 19.0 mph 73 % 0.00 in 564 W/m2
10:35 53.1 °F 45.0 °F 30.33 in WNW 11.0 mph 12.0 mph 74 % 0.00 in 246 W/m2
10:40 52.8 °F 45.1 °F 30.33 in WNW 10.0 mph 11.0 mph 75 % 0.00 in 197 W/m2
10:45 52.0 °F 44.7 °F 30.33 in WNW 14.0 mph 18.0 mph 76 % 0.00 in 369 W/m2
10:50 51.7 °F 44.7 °F 30.33 in West 14.0 mph 14.0 mph 77 % 0.00 in 197 W/m2
11:00 51.3 °F 44.7 °F 30.33 in West 12.0 mph 12.0 mph 78 % 0.00 in 174 W/m2
11:05 51.2 °F 44.6 °F 30.32 in WNW 12.0 mph 12.0 mph 78 % 0.00 in 174 W/m2
11:10 51.3 °F 45.0 °F 30.32 in WNW 12.0 mph 18.0 mph 79 % 0.00 in 276 W/m2
11:15 51.5 °F 45.2 °F 30.32 in West 13.0 mph 18.0 mph 79 % 0.00 in 656 W/m2
11:20 51.8 °F 45.5 °F 30.33 in WNW 14.0 mph 19.0 mph 79 % 0.00 in 652 W/m2
11:25 52.4 °F 45.7 °F 30.33 in West 17.0 mph 19.0 mph 78 % 0.00 in 612 W/m2
11:35 52.8 °F 45.4 °F 30.33 in West 15.0 mph 17.0 mph 76 % 0.00 in 258 W/m2
11:40 52.5 °F 45.5 °F 30.33 in WNW 14.0 mph 14.0 mph 77 % 0.00 in 322 W/m2
11:45 52.1 °F 45.1 °F 30.33 in West 13.0 mph 18.0 mph 77 % 0.00 in 248 W/m2
11:55 51.8 °F 45.5 °F 30.34 in West 11.0 mph 12.0 mph 79 % 0.00 in 315 W/m2
12:00 52.0 °F 45.7 °F 30.34 in West 10.0 mph 10.0 mph 79 % 0.00 in 301 W/m2
12:10 52.4 °F 45.7 °F 30.34 in WNW 10.0 mph 10.0 mph 78 % 0.00 in 304 W/m2
12:15 52.8 °F 46.1 °F 30.34 in WNW 9.0 mph 10.0 mph 78 % 0.00 in 385 W/m2
12:20 53.2 °F 46.5 °F 30.34 in West 8.0 mph 9.0 mph 78 % 0.00 in 408 W/m2
12:25 53.4 °F 46.4 °F 30.34 in West 9.0 mph 13.0 mph 77 % 0.00 in 230 W/m2
12:30 53.2 °F 46.2 °F 30.34 in West 10.0 mph 11.0 mph 77 % 0.00 in 199 W/m2
12:35 53.1 °F 46.1 °F 30.34 in West 11.0 mph 11.0 mph 77 % 0.00 in 179 W/m2
12:40 53.1 °F 46.1 °F 30.34 in WNW 10.0 mph 10.0 mph 77 % 0.00 in 260 W/m2
12:45 53.2 °F 45.8 °F 30.34 in WNW 11.0 mph 11.0 mph 76 % 0.00 in 357 W/m2
12:50 53.2 °F 45.8 °F 30.33 in West 11.0 mph 18.0 mph 76 % 0.00 in 155 W/m2
12:55 53.2 °F 46.2 °F 30.33 in West 12.0 mph 18.0 mph 77 % 0.00 in 666 W/m2
13:05 53.8 °F 46.4 °F 30.34 in WNW 12.0 mph 13.0 mph 76 % 0.00 in 151 W/m2
13:15 54.5 °F 46.7 °F 30.34 in West 12.0 mph 12.0 mph 75 % 0.00 in 645 W/m2
13:20 55.0 °F 46.5 °F 30.33 in WSW 13.0 mph 15.0 mph 73 % 0.00 in 596 W/m2
13:25 55.5 °F 47.0 °F 30.34 in WSW 13.0 mph 15.0 mph 73 % 0.00 in 682 W/m2
13:30 56.2 °F 47.3 °F 30.33 in West 12.0 mph 12.0 mph 72 % 0.00 in 536 W/m2
13:35 56.5 °F 47.2 °F 30.34 in WNW 11.0 mph 12.0 mph 71 % 0.00 in 649 W/m2
13:40 56.2 °F 46.2 °F 30.34 in West 11.0 mph 14.0 mph 69 % 0.00 in 190 W/m2
13:50 54.9 °F 45.7 °F 30.34 in WNW 14.0 mph 16.0 mph 71 % 0.00 in 176 W/m2
13:55 54.6 °F 45.4 °F 30.33 in West 15.0 mph 16.0 mph 71 % 0.00 in 230 W/m2
14:00 54.2 °F 45.0 °F 30.33 in West 17.0 mph 17.0 mph 71 % 0.00 in 190 W/m2
14:05 54.1 °F 45.6 °F 30.33 in West 16.0 mph 17.0 mph 73 % 0.00 in 218 W/m2
14:15 54.1 °F 45.3 °F 30.34 in West 15.0 mph 20.0 mph 72 % 0.00 in 403 W/m2
14:20 54.5 °F 45.3 °F 30.34 in West 13.0 mph 15.0 mph 71 % 0.00 in 288 W/m2
14:25 54.8 °F 45.6 °F 30.34 in West 13.0 mph 15.0 mph 71 % 0.00 in 221 W/m2
14:30 54.9 °F 45.3 °F 30.34 in WNW 13.0 mph 13.0 mph 70 % 0.00 in 401 W/m2
14:35 55.2 °F 45.6 °F 30.34 in WSW 12.0 mph 14.0 mph 70 % 0.00 in 424 W/m2
14:40 55.5 °F 45.5 °F 30.34 in WNW 13.0 mph 13.0 mph 69 % 0.00 in 221 W/m2
14:45 55.6 °F 45.6 °F 30.34 in West 14.0 mph 14.0 mph 69 % 0.00 in 267 W/m2
14:55 56.0 °F 46.0 °F 30.34 in West 13.0 mph 19.0 mph 69 % 0.00 in 267 W/m2
15:00 56.1 °F 46.1 °F 30.34 in WNW 13.0 mph 13.0 mph 69 % 0.00 in 294 W/m2
15:05 56.1 °F 45.7 °F 30.34 in West 14.0 mph 14.0 mph 68 % 0.00 in 272 W/m2
15:10 56.3 °F 46.3 °F 30.34 in WSW 13.0 mph 13.0 mph 69 % 0.00 in 508 W/m2
15:15 56.6 °F 46.5 °F 30.34 in NW 12.0 mph 13.0 mph 69 % 0.00 in 408 W/m2
15:20 57.1 °F 46.6 °F 30.34 in NW 11.0 mph 11.0 mph 68 % 0.00 in 439 W/m2
15:30 57.2 °F 46.3 °F 30.34 in WNW 11.0 mph 11.0 mph 67 % 0.00 in 485 W/m2
15:35 57.3 °F 46.4 °F 30.34 in WNW 10.0 mph 11.0 mph 67 % 0.00 in 504 W/m2
15:45 57.3 °F 46.0 °F 30.35 in WNW 11.0 mph 15.0 mph 66 % 0.00 in 464 W/m2
15:50 56.9 °F 46.1 °F 30.34 in West 12.0 mph 12.0 mph 67 % 0.00 in 230 W/m2
15:55 56.6 °F 45.8 °F 30.34 in WNW 13.0 mph 16.0 mph 67 % 0.00 in 388 W/m2
16:05 56.2 °F 45.8 °F 30.35 in WNW 14.0 mph 15.0 mph 68 % 0.00 in 371 W/m2
16:10 56.1 °F 45.7 °F 30.35 in WNW 13.0 mph 13.0 mph 68 % 0.00 in 330 W/m2
16:15 56.0 °F 46.0 °F 30.35 in West 13.0 mph 13.0 mph 69 % 0.00 in 274 W/m2
16:20 55.7 °F 45.7 °F 30.35 in West 14.0 mph 15.0 mph 69 % 0.00 in 183 W/m2
16:25 55.2 °F 45.6 °F 30.36 in WNW 13.0 mph 15.0 mph 70 % 0.00 in 149 W/m2
16:35 54.6 °F 45.8 °F 30.36 in West 12.0 mph 15.0 mph 72 % 0.00 in 128 W/m2
16:40 54.2 °F 45.7 °F 30.36 in WNW 10.0 mph 10.0 mph 73 % 0.00 in 120 W/m2
16:50 53.7 °F 45.6 °F 30.36 in West 11.0 mph 11.0 mph 74 % 0.00 in 105 W/m2
16:55 53.6 °F 45.9 °F 30.36 in West 9.0 mph 11.0 mph 75 % 0.00 in 90 W/m2
17:00 53.4 °F 45.7 °F 30.36 in WNW 8.0 mph 8.0 mph 75 % 0.00 in 77 W/m2
17:10 53.2 °F 45.5 °F 30.37 in West 6.0 mph 11.0 mph 75 % 0.00 in 62 W/m2
17:15 53.1 °F 45.7 °F 30.37 in West 6.0 mph 11.0 mph 76 % 0.00 in 56 W/m2
17:20 53.1 °F 45.7 °F 30.36 in West 4.0 mph 9.0 mph 76 % 0.00 in 51 W/m2
17:25 53.0 °F 46.0 °F 30.36 in West 5.0 mph 9.0 mph 77 % 0.00 in 47 W/m2
17:30 52.8 °F 45.8 °F 30.36 in WNW 6.0 mph 9.0 mph 77 % 0.00 in 44 W/m2
17:40 52.5 °F 45.2 °F 30.37 in West 7.0 mph 7.0 mph 76 % 0.00 in 26 W/m2
17:50 52.2 °F 44.9 °F 30.37 in WSW 7.0 mph 12.0 mph 76 % 0.00 in 14 W/m2
17:55 52.0 °F 44.7 °F 30.37 in WSW 8.0 mph 12.0 mph 76 % 0.00 in 11 W/m2
18:00 51.8 °F 44.5 °F 30.37 in WNW 7.0 mph 7.0 mph 76 % 0.00 in 7 W/m2
18:05 51.6 °F 44.6 °F 30.37 in West 5.0 mph 9.0 mph 77 % 0.00 in 0 W/m2
18:10 51.4 °F 44.4 °F 30.37 in West 2.0 mph 2.0 mph 77 % 0.00 in 0 W/m2
18:20 50.9 °F 43.9 °F 30.37 in Calm   9.0 mph 77 % 0.00 in 0 W/m2
18:25 50.5 °F 43.9 °F 30.38 in Calm   9.0 mph 78 % 0.00 in 0 W/m2
18:30 50.1 °F 43.5 °F 30.38 in West 1.0 mph 1.0 mph 78 % 0.00 in 0 W/m2
18:35 50.0 °F 43.7 °F 30.38 in SW 2.0 mph 4.0 mph 79 % 0.00 in 0 W/m2
18:40 50.1 °F 43.8 °F 30.38 in SW 2.0 mph 2.0 mph 79 % 0.00 in 0 W/m2
18:50 50.0 °F 43.7 °F 30.38 in West 4.0 mph 9.0 mph 79 % 0.00 in 0 W/m2
19:00 50.0 °F 43.7 °F 30.38 in West 4.0 mph 4.0 mph 79 % 0.00 in 0 W/m2
19:05 50.0 °F 43.7 °F 30.38 in West 3.0 mph 9.0 mph 79 % 0.00 in 0 W/m2
19:10 49.8 °F 43.9 °F 30.38 in WNW 2.0 mph 9.0 mph 80 % 0.00 in 0 W/m2
19:15 49.8 °F 43.9 °F 30.38 in WNW 3.0 mph 9.0 mph 80 % 0.00 in 0 W/m2
19:25 49.8 °F 43.9 °F 30.38 in WNW 3.0 mph 9.0 mph 80 % 0.00 in 0 W/m2
19:30 49.8 °F 43.9 °F 30.38 in WNW 3.0 mph 3.0 mph 80 % 0.00 in 0 W/m2
19:35 49.8 °F 44.2 °F 30.38 in West 3.0 mph 9.0 mph 81 % 0.00 in 0 W/m2
19:40 49.8 °F 44.2 °F 30.38 in West 4.0 mph 9.0 mph 81 % 0.00 in 0 W/m2
19:45 50.0 °F 44.1 °F 30.38 in WSW 6.0 mph 9.0 mph 80 % 0.00 in 0 W/m2
19:50 50.2 °F 44.3 °F 30.38 in West 6.0 mph 6.0 mph 80 % 0.00 in 0 W/m2
20:00 50.1 °F 43.8 °F 30.38 in WSW 3.0 mph 3.0 mph 79 % 0.00 in 0 W/m2
20:10 49.7 °F 43.8 °F 30.38 in West 1.0 mph 9.0 mph 80 % 0.00 in 0 W/m2
20:15 49.6 °F 43.7 °F 30.37 in West 1.0 mph 9.0 mph 80 % 0.00 in 0 W/m2
20:20 49.7 °F 43.8 °F 30.37 in WNW 2.0 mph 9.0 mph 80 % 0.00 in 0 W/m2
20:25 49.6 °F 43.7 °F 30.37 in NW 2.0 mph 9.0 mph 80 % 0.00 in 0 W/m2
20:35 49.4 °F 43.5 °F 30.37 in NW 2.0 mph 9.0 mph 80 % 0.00 in 0 W/m2
20:40 49.5 °F 43.9 °F 30.37 in WSW 2.0 mph 9.0 mph 81 % 0.00 in 0 W/m2
20:45 49.5 °F 43.6 °F 30.37 in West 2.0 mph 9.0 mph 80 % 0.00 in 0 W/m2
20:50 49.5 °F 43.6 °F 30.38 in West 3.0 mph 3.0 mph 80 % 0.00 in 0 W/m2
21:00 49.6 °F 44.0 °F 30.38 in West 1.0 mph 1.0 mph 81 % 0.00 in 0 W/m2
21:05 49.4 °F 43.8 °F 30.38 in Calm   9.0 mph 81 % 0.00 in 0 W/m2
21:10 49.3 °F 44.0 °F 30.38 in Calm   9.0 mph 82 % 0.00 in 0 W/m2
21:15 49.0 °F 43.7 °F 30.38 in NNW 1.0 mph 9.0 mph 82 % 0.00 in 0 W/m2
21:20 48.8 °F 43.9 °F 30.38 in NE 1.0 mph 1.0 mph 83 % 0.00 in 0 W/m2
21:25 48.8 °F 43.9 °F 30.38 in NE 1.0 mph 9.0 mph 83 % 0.00 in 0 W/m2
21:30 48.8 °F 44.2 °F 30.38 in WNW 2.0 mph 9.0 mph 84 % 0.00 in 0 W/m2
21:40 49.0 °F 44.4 °F 30.38 in WNW 3.0 mph 3.0 mph 84 % 0.00 in 0 W/m2
21:45 49.1 °F 44.5 °F 30.38 in WNW 2.0 mph 9.0 mph 84 % 0.00 in 0 W/m2
21:50 49.1 °F 44.5 °F 30.38 in WSW 2.0 mph 9.0 mph 84 % 0.00 in 0 W/m2
21:55 49.2 °F 44.6 °F 30.38 in West 2.0 mph 9.0 mph 84 % 0.00 in 0 W/m2
22:00 49.1 °F 44.5 °F 30.38 in West 1.0 mph 1.0 mph 84 % 0.00 in 0 W/m2
22:05 49.1 °F 44.5 °F 30.38 in SW 1.0 mph 9.0 mph 84 % 0.00 in 0 W/m2
22:10 48.9 °F 44.3 °F 30.38 in West 2.0 mph 2.0 mph 84 % 0.00 in 0 W/m2
22:15 48.9 °F 44.3 °F 30.38 in WSW 2.0 mph 9.0 mph 84 % 0.00 in 0 W/m2
22:25 48.7 °F 44.1 °F 30.38 in WNW 3.0 mph 9.0 mph 84 % 0.00 in 0 W/m2
22:30 48.6 °F 44.3 °F 30.38 in NW 4.0 mph 9.0 mph 85 % 0.00 in 0 W/m2
22:35 48.7 °F 44.4 °F 30.38 in WNW 6.0 mph 9.0 mph 85 % 0.00 in 0 W/m2
22:40 48.7 °F 44.4 °F 30.38 in WNW 6.0 mph 9.0 mph 85 % 0.00 in 0 W/m2
22:50 48.9 °F 44.6 °F 30.38 in WNW 7.0 mph 9.0 mph 85 % 0.00 in 0 W/m2
22:55 49.0 °F 44.7 °F 30.38 in WSW 8.0 mph 9.0 mph 85 % 0.00 in 0 W/m2
23:00 49.0 °F 44.7 °F 30.38 in West 9.0 mph 10.0 mph 85 % 0.00 in 0 W/m2
23:05 49.0 °F 44.7 °F 30.38 in WNW 8.0 mph 10.0 mph 85 % 0.00 in 0 W/m2
23:10 49.0 °F 44.7 °F 30.38 in WNW 7.0 mph 7.0 mph 85 % 0.00 in 0 W/m2
23:20 48.8 °F 44.5 °F 30.38 in WNW 7.0 mph 9.0 mph 85 % 0.00 in 0 W/m2
23:25 48.8 °F 44.5 °F 30.38 in WNW 8.0 mph 9.0 mph 85 % 0.00 in 0 W/m2
23:30 48.7 °F 44.4 °F 30.38 in West 8.0 mph 9.0 mph 85 % 0.00 in 0 W/m2
23:35 48.8 °F 44.5 °F 30.38 in WNW 8.0 mph 9.0 mph 85 % 0.00 in 0 W/m2
23:40 48.9 °F 44.6 °F 30.38 in West 8.0 mph 13.0 mph 85 % 0.00 in 0 W/m2
23:45 48.8 °F 44.2 °F 30.38 in WNW 8.0 mph 13.0 mph 84 % 0.00 in 0 W/m2
23:55 48.6 °F 44.3 °F 30.38 in WNW 6.0 mph 9.0 mph 85 % 0.00 in 0 W/m2
Delerius-Weather
Compliments of Weather Underground - 2 mb

Data updates at regular intervals.